NCAR-RAP Real-Time Weather Data

Output produced by METARs form (08 May 2021  01:56 UTC)
found at http://weather.rap.ucar.edu/surface/
 
KDHN 080053Z 35007KT 10SM CLR 19/07 A3011 RMK AO2 SLP191 T01940067
KDHN 072353Z 35011KT 10SM CLR 22/06 A3009 RMK AO2 SLP185 60000 T02170061 10250 20217 53001
KDHN 072253Z 32010KT 10SM CLR 23/07 A3008 RMK AO2 SLP182 T02330072
KDHN 072153Z 32013KT 10SM CLR 24/07 A3008 RMK AO2 SLP181 T02440072
KDHN 072053Z 33012KT 10SM CLR 24/07 A3009 RMK AO2 SLP183 60000 T02440072 56018
KDHN 071953Z 34009KT 10SM CLR 24/08 A3010 RMK AO2 RAE1856 SLP189 P0000 T02440083
KDHN 071853Z 31017G25KT 10SM -RA CLR 24/08 A3012 RMK AO2 RAB51 SLP194 P0000 T02440078
KDHN 071834Z 31011G24KT 280V340 4SM HZ FEW001 24/09 A3012 RMK AO2 T02390089
KDHN 071753Z 31014G20KT 10SM CLR 24/09 A3014 RMK AO2 SLP201 T02390094 10244 20139 58007
KDHN 071653Z 31010KT 10SM CLR 23/11 A3015 RMK AO2 SLP207 T02330106
KDHN 071553Z 34010KT 10SM CLR 22/11 A3016 RMK AO2 SLP210 T02220106
KDHN 071453Z 35008KT 10SM CLR 21/09 A3016 RMK AO2 SLP208 T02060094 51011
KDHN 071353Z 35009KT 10SM CLR 18/11 A3015 RMK AO2 SLP205 T01830106
KDHN 071253Z 33008KT 10SM CLR 16/11 A3014 RMK AO2 SLP203 T01610106
KDHN 071153Z 32007KT 10SM CLR 14/10 A3013 RMK AO2 SLP198 T01390100 10161 20122 53015